Time;durP1;ratioP1;P1;durP2;ratioP2;P2;SDS_P1;SDS_P2;PMS_P1;PMS_P2;Temp;Humidity;BMP_temperature;BMP_pressure;BME280_temperature;BME280_humidity;BME280_pressure;Samples;Min_cycle;Max_cycle;Signal;HPM_P1;HPM_P2
2023/03/23 00:02:15;;;;;;;73.60;39.37;;;;;;;6.55;100.00;94599.22;6348317;22;20155;-92
2023/03/23 00:04:44;;;;;;;73.37;42.00;;;;;;;6.55;100.00;94601.03;6339524;22;20541;-91
2023/03/23 00:07:12;;;;;;;74.30;40.53;;;;;;;6.54;100.00;94594.28;6338423;22;20155;-91
2023/03/23 00:09:40;;;;;;;72.67;39.37;;;;;;;6.56;100.00;94597.44;6339288;22;20187;-91
2023/03/23 00:12:08;;;;;;;75.17;41.03;;;;;;;6.50;100.00;94595.66;6338829;22;20514;-90
2023/03/23 00:14:43;;;;;;;74.20;40.20;;;;;;;6.48;100.00;94595.06;6338548;22;20203;-91
2023/03/23 00:17:14;;;;;;;75.57;41.30;;;;;;;6.37;100.00;94585.28;6338106;22;20220;-87
2023/03/23 00:19:45;;;;;;;73.90;40.50;;;;;;;6.44;100.00;94591.25;6338828;22;20159;-87
2023/03/23 00:22:16;;;;;;;81.37;43.00;;;;;;;6.28;100.00;94571.75;6340367;22;20166;-87
2023/03/23 00:24:43;;;;;;;80.97;45.87;;;;;;;6.44;100.00;94586.91;6337822;22;20575;-87
2023/03/23 00:27:14;;;;;;;55.70;31.23;;;;;;;6.39;100.00;94588.47;6338132;22;20160;-87
2023/03/23 00:29:42;;;;;;;46.13;27.07;;;;;;;6.38;100.00;94594.63;6338136;22;20239;-87
2023/03/23 00:32:14;;;;;;;56.90;32.73;;;;;;;6.38;100.00;94598.00;6338024;22;20202;-89
2023/03/23 00:34:43;;;;;;;55.23;32.60;;;;;;;6.43;100.00;94611.13;6338517;22;20498;-93
2023/03/23 00:37:11;;;;;;;54.13;30.50;;;;;;;6.42;100.00;94606.94;6339378;22;20168;-93
2023/03/23 00:39:46;;;;;;;58.73;34.40;;;;;;;6.27;100.00;94595.97;6338715;22;20482;-93
2023/03/23 00:42:14;;;;;;;61.60;36.23;;;;;;;6.26;100.00;94602.91;6341389;22;20483;-93
2023/03/23 00:44:41;;;;;;;70.73;38.27;;;;;;;6.15;100.00;94585.41;6338523;22;20528;-90
2023/03/23 00:47:09;;;;;;;66.07;38.63;;;;;;;6.31;100.00;94606.72;6338114;22;20163;-89
2023/03/23 00:49:37;;;;;;;57.53;34.33;;;;;;;6.42;100.00;94616.47;6338654;22;20177;-89
2023/03/23 00:52:06;;;;;;;59.83;34.40;;;;;;;6.22;100.00;94599.13;6338236;22;20656;-89
2023/03/23 00:54:34;;;;;;;63.33;35.03;;;;;;;6.22;100.00;94591.41;6337990;22;20188;-90
2023/03/23 00:57:02;;;;;;;62.53;36.80;;;;;;;6.08;100.00;94576.06;6338110;22;20167;-90
2023/03/23 00:59:29;;;;;;;71.33;36.90;;;;;;;6.19;100.00;94606.47;6337519;22;20164;-90
2023/03/23 01:01:56;;;;;;;60.70;35.77;;;;;;;6.23;100.00;94610.25;6341274;22;20166;-91
2023/03/23 01:04:23;;;;;;;60.03;33.87;;;;;;;6.33;100.00;94626.16;6311109;22;20219;-91
2023/03/23 01:06:51;;;;;;;60.33;34.90;;;;;;;6.38;100.00;94625.59;6337603;22;20250;-90
2023/03/23 01:09:20;;;;;;;61.77;35.23;;;;;;;6.00;100.00;94571.06;6337669;22;20171;-89
2023/03/23 01:11:48;;;;;;;58.73;33.20;;;;;;;6.26;100.00;94615.03;6337773;22;20183;-89
2023/03/23 01:14:18;;;;;;;61.30;33.03;;;;;;;6.36;100.00;94622.41;6337825;22;20159;-89
2023/03/23 01:16:46;;;;;;;59.10;33.23;;;;;;;6.13;100.00;94584.81;6338276;22;20159;-89
2023/03/23 01:19:13;;;;;;;62.70;33.83;;;;;;;6.19;100.00;94606.47;6344639;22;20196;-90
2023/03/23 01:21:40;;;;;;;63.37;33.27;;;;;;;6.42;100.00;94624.22;6341972;22;20170;-90
2023/03/23 01:24:08;;;;;;;56.77;31.80;;;;;;;6.42;100.00;94619.84;6310281;22;20216;-89
2023/03/23 01:26:35;;;;;;;52.33;30.63;;;;;;;6.45;100.00;94618.66;6337776;22;20652;-90
2023/03/23 01:29:01;;;;;;;58.77;33.10;;;;;;;6.49;100.00;94623.28;6337135;22;20625;-83
2023/03/23 01:31:30;;;;;;;52.60;30.90;;;;;;;6.45;100.00;94609.16;6337137;22;20168;-83
2023/03/23 01:33:57;;;;;;;47.87;27.70;;;;;;;6.42;100.00;94604.38;6337577;22;20194;-83
2023/03/23 01:36:26;;;;;;;48.93;28.23;;;;;;;6.48;100.00;94618.28;6337258;22;20164;-84
2023/03/23 01:38:53;;;;;;;42.37;26.77;;;;;;;6.45;100.00;94616.88;6337769;22;20185;-84
2023/03/23 01:41:21;;;;;;;47.83;26.43;;;;;;;6.41;100.00;94610.50;6337188;22;20179;-84
2023/03/23 01:44:03;;;;;;;46.67;26.63;;;;;;;6.36;100.00;94594.81;6337280;22;20533;-83
2023/03/23 01:46:33;;;;;;;40.73;23.97;;;;;;;6.32;100.00;94587.66;6337209;22;20171;-84
2023/03/23 01:49:08;;;;;;;40.53;22.73;;;;;;;6.48;100.00;94608.75;6337219;22;20171;-86
2023/03/23 01:51:38;;;;;;;45.43;25.33;;;;;;;6.46;100.00;94603.00;6338573;22;20159;-84
2023/03/23 01:54:08;;;;;;;45.47;25.67;;;;;;;6.48;100.00;94593.28;6309474;22;20586;-82
2023/03/23 01:56:41;;;;;;;41.40;24.37;;;;;;;6.52;100.00;94597.03;6337062;22;20212;-81
2023/03/23 01:59:08;;;;;;;38.80;23.50;;;;;;;6.54;100.00;94591.69;6336945;22;20152;-82
2023/03/23 02:01:39;;;;;;;42.00;24.13;;;;;;;6.60;100.00;94604.63;6336488;22;20167;-81
2023/03/23 02:04:07;;;;;;;35.00;21.53;;;;;;;6.59;100.00;94597.88;6336972;22;20228;-81
2023/03/23 02:06:34;;;;;;;34.43;21.60;;;;;;;6.57;100.00;94596.47;6336301;22;20622;-82
2023/03/23 02:09:02;;;;;;;37.80;22.53;;;;;;;6.41;100.00;94582.13;6337044;22;20179;-81
2023/03/23 02:11:29;;;;;;;37.13;22.00;;;;;;;6.42;100.00;94594.03;6336695;22;20229;-81
2023/03/23 02:13:56;;;;;;;35.63;20.43;;;;;;;6.51;100.00;94594.66;6337209;22;20187;-81
2023/03/23 02:16:31;;;;;;;39.10;21.70;;;;;;;6.53;100.00;94598.63;6336810;22;20175;-81
2023/03/23 02:19:20;;;;;;;32.47;20.27;;;;;;;6.52;100.00;94594.47;6336966;22;20628;-82
2023/03/23 02:22:16;;;;;;;32.73;20.70;;;;;;;6.57;100.00;94597.28;6336151;22;20168;-83
2023/03/23 02:25:00;;;;;;;32.77;20.30;;;;;;;6.57;100.00;94596.47;6336770;22;20172;-82
2023/03/23 02:28:02;;;;;;;32.67;20.17;;;;;;;6.50;100.00;94598.22;6337339;22;20164;-83
2023/03/23 02:30:46;;;;;;;34.37;19.77;;;;;;;6.60;100.00;94606.41;6330735;22;20171;-83
2023/03/23 02:33:31;;;;;;;34.07;20.07;;;;;;;6.65;100.00;94604.84;6336986;22;20154;-84
2023/03/23 02:36:00;;;;;;;33.30;20.27;;;;;;;6.63;100.00;94593.13;6336569;22;20159;-84
2023/03/23 02:38:32;;;;;;;32.87;19.73;;;;;;;6.61;100.00;94590.72;6337202;22;20168;-85
2023/03/23 02:41:03;;;;;;;31.73;18.60;;;;;;;6.57;100.00;94597.28;6338046;22;20151;-82
2023/03/23 02:43:36;;;;;;;35.77;21.03;;;;;;;6.63;100.00;94606.81;6336422;22;20177;-84
2023/03/23 02:46:08;;;;;;;34.77;20.40;;;;;;;6.63;100.00;94606.03;6336572;22;20187;-85
2023/03/23 02:48:39;;;;;;;39.10;21.47;;;;;;;6.57;100.00;94599.84;6336928;22;20506;-83
2023/03/23 02:51:08;;;;;;;34.60;21.53;;;;;;;6.57;100.00;94612.75;6337058;22;20168;-83
2023/03/23 02:53:41;;;;;;;41.20;23.57;;;;;;;6.45;100.00;94603.19;6337128;22;20199;-82
2023/03/23 02:56:10;;;;;;;41.30;24.20;;;;;;;6.51;100.00;94618.69;6337293;22;20170;-82
2023/03/23 02:58:37;;;;;;;43.93;25.97;;;;;;;6.49;100.00;94623.28;6336614;22;20167;-82
2023/03/23 03:01:41;;;;;;;46.77;26.53;;;;;;;6.43;100.00;94624.03;6336686;22;20163;-82
2023/03/23 03:04:14;;;;;;;48.83;28.10;;;;;;;6.38;100.00;94623.03;6336373;22;20177;-82
2023/03/23 03:06:49;;;;;;;47.70;26.77;;;;;;;6.31;100.00;94611.88;6336850;22;20168;-86
2023/03/23 03:09:22;;;;;;;50.20;28.27;;;;;;;6.33;100.00;94630.53;6336837;22;20504;-84
2023/03/23 03:11:53;;;;;;;47.60;28.03;;;;;;;6.21;100.00;94615.59;6336926;22;20167;-84
2023/03/23 03:14:25;;;;;;;45.13;27.40;;;;;;;6.26;100.00;94638.25;6337330;22;20607;-84
2023/03/23 03:16:57;;;;;;;53.07;28.10;;;;;;;6.24;100.00;94642.78;6338023;22;20160;-85
2023/03/23 03:19:30;;;;;;;48.30;27.27;;;;;;;6.22;100.00;94644.78;6309870;22;20167;-86
2023/03/23 03:21:59;;;;;;;45.40;26.37;;;;;;;6.12;100.00;94616.75;6337154;22;20160;-86
2023/03/23 03:24:29;;;;;;;50.17;26.77;;;;;;;6.22;100.00;94644.78;6337558;22;20187;-86
2023/03/23 03:26:59;;;;;;;48.70;26.87;;;;;;;6.11;100.00;94629.84;6339408;22;20179;-86
2023/03/23 03:29:30;;;;;;;44.93;26.83;;;;;;;6.21;100.00;94636.22;6339062;22;20250;-86
2023/03/23 03:31:59;;;;;;;50.00;27.07;;;;;;;5.98;100.00;94627.19;6347394;22;20163;-86
2023/03/23 03:34:32;;;;;;;51.43;27.43;;;;;;;6.06;100.00;94640.72;6341303;22;20225;-87
2023/03/23 03:37:00;;;;;;;48.23;28.37;;;;;;;6.05;100.00;94638.34;6346210;22;20235;-88
2023/03/23 03:39:27;;;;;;;55.47;32.17;;;;;;;5.97;100.00;94639.31;6341974;22;20171;-87
2023/03/23 03:41:56;;;;;;;58.87;33.87;;;;;;;5.96;100.00;94644.63;6341935;22;20638;-86
2023/03/23 03:47:20;;;;;;;66.13;36.33;;;;;;;5.66;100.00;94595.03;6319041;22;20206;-84
2023/03/23 03:49:51;;;;;;;56.90;34.67;;;;;;;6.05;100.00;94651.25;6339385;22;20167;-84
2023/03/23 03:58:32;;;;;;;72.20;41.93;;;;;;;5.74;100.00;94602.63;6295434;22;20492;-82
2023/03/23 04:06:35;;;;;;;75.73;45.90;;;;;;;5.95;100.00;94630.13;6332790;22;20246;-82
2023/03/23 04:09:28;;;;;;;70.00;41.30;;;;;;;5.77;100.00;94624.66;6338600;22;20549;-83
2023/03/23 04:11:55;;;;;;;68.40;41.73;;;;;;;5.77;100.00;94609.19;6336615;22;20167;-83
2023/03/23 04:14:22;;;;;;;69.73;41.73;;;;;;;5.78;100.00;94624.47;6337492;22;20168;-82
2023/03/23 04:16:51;;;;;;;72.27;43.57;;;;;;;5.82;100.00;94624.88;6337756;22;20164;-83
2023/03/23 04:19:18;;;;;;;72.83;44.37;;;;;;;5.80;100.00;94637.19;6338504;22;20170;-84
2023/03/23 04:21:48;;;;;;;69.63;43.17;;;;;;;5.66;100.00;94626.75;6338226;22;20237;-84
2023/03/23 04:24:15;;;;;;;77.67;44.37;;;;;;;5.75;100.00;94630.00;6338298;22;20168;-84
2023/03/23 04:26:44;;;;;;;84.97;48.47;;;;;;;5.82;100.00;94641.16;6338080;22;20174;-84
2023/03/23 04:29:12;;;;;;;86.73;49.53;;;;;;;5.72;100.00;94632.94;6337780;22;20645;-85
2023/03/23 04:31:40;;;;;;;87.57;48.93;;;;;;;5.76;100.00;94641.91;6337857;22;20179;-84
2023/03/23 04:34:07;;;;;;;94.50;53.53;;;;;;;5.70;100.00;94635.72;6338009;22;20170;-85
2023/03/23 04:36:34;;;;;;;91.73;54.03;;;;;;;5.70;100.00;94646.03;6337531;22;20190;-81
2023/03/23 04:39:06;;;;;;;93.93;51.67;;;;;;;5.73;100.00;94642.28;6338051;22;20163;-85
2023/03/23 04:41:34;;;;;;;93.93;55.57;;;;;;;5.59;100.00;94630.28;6337823;22;20152;-83
2023/03/23 04:44:04;;;;;;;97.43;55.93;;;;;;;5.49;100.00;94624.66;6338028;22;20167;-82
2023/03/23 04:46:31;;;;;;;96.40;56.80;;;;;;;5.61;100.00;94654.09;6337559;22;20197;-83
2023/03/23 04:48:59;;;;;;;98.50;56.77;;;;;;;5.40;100.00;94618.84;6337908;22;20168;-83
2023/03/23 04:51:27;;;;;;;100.87;58.57;;;;;;;5.59;100.00;94658.66;6338186;22;20164;-83
2023/03/23 04:53:55;;;;;;;100.87;57.00;;;;;;;5.48;100.00;94654.78;6340151;22;20237;-81
2023/03/23 04:56:23;;;;;;;100.20;58.10;;;;;;;5.54;100.00;94658.41;6338340;22;20159;-86
2023/03/23 04:58:50;;;;;;;109.07;60.23;;;;;;;5.49;100.00;94632.38;6339851;22;20231;-85
2023/03/23 05:01:17;;;;;;;105.97;58.57;;;;;;;5.57;100.00;94658.81;6337450;22;20182;-86
2023/03/23 05:03:44;;;;;;;105.47;57.27;;;;;;;5.55;100.00;94662.56;6338416;22;20201;-85
2023/03/23 05:06:12;;;;;;;105.67;59.27;;;;;;;5.56;100.00;94662.41;6339655;22;20245;-86
2023/03/23 05:08:39;;;;;;;116.17;64.10;;;;;;;5.60;100.00;94668.75;6339549;22;20187;-86
2023/03/23 05:11:08;;;;;;;121.50;63.47;;;;;;;5.55;100.00;94665.13;6338220;22;20177;-85
2023/03/23 05:13:36;;;;;;;120.30;65.70;;;;;;;5.54;100.00;94674.66;6338145;22;20170;-85
2023/03/23 05:16:07;;;;;;;115.40;64.00;;;;;;;5.64;100.00;94669.97;6338495;22;20212;-87
2023/03/23 05:18:34;;;;;;;107.23;61.23;;;;;;;5.57;100.00;94648.50;6339828;22;20171;-90
2023/03/23 05:21:01;;;;;;;93.40;53.97;;;;;;;5.70;100.00;94673.59;6359940;22;20163;-87
2023/03/23 05:23:30;;;;;;;72.27;43.33;;;;;;;5.70;100.00;94676.16;6344608;22;20690;-84
2023/03/23 05:26:00;;;;;;;103.00;53.97;;;;;;;5.76;100.00;94675.41;6335970;22;20194;-90
2023/03/23 05:28:28;;;;;;;73.50;45.07;;;;;;;5.77;100.00;94678.81;6334839;22;20172;-83
2023/03/23 05:30:56;;;;;;;95.40;50.00;;;;;;;5.65;100.00;94668.22;6336244;22;20164;-81
2023/03/23 05:33:23;;;;;;;83.23;46.67;;;;;;;5.67;100.00;94677.34;6335678;22;20171;-81
2023/03/23 05:35:50;;;;;;;83.03;42.77;;;;;;;5.65;100.00;94668.22;6334378;22;20657;-81
2023/03/23 05:38:17;;;;;;;81.70;46.30;;;;;;;5.74;100.00;94687.72;6334020;22;20167;-81
2023/03/23 05:40:44;;;;;;;88.60;48.63;;;;;;;5.78;100.00;94688.91;6335170;22;20213;-81
2023/03/23 05:43:11;;;;;;;80.83;44.07;;;;;;;5.77;100.00;94696.84;6332758;22;20485;-80
2023/03/23 05:45:41;;;;;;;80.00;45.93;;;;;;;5.72;100.00;94694.81;6333350;22;20187;-81
2023/03/23 05:48:09;;;;;;;66.93;38.53;;;;;;;5.82;100.00;94697.09;6333785;22;20197;-80
2023/03/23 05:50:37;;;;;;;70.20;39.63;;;;;;;5.84;100.00;94700.25;6334074;22;20244;-80
2023/03/23 05:53:04;;;;;;;65.57;40.00;;;;;;;5.73;100.00;94680.94;6334444;22;20171;-81
2023/03/23 05:55:31;;;;;;;73.90;43.33;;;;;;;5.80;100.00;94704.22;6333267;22;20233;-80
2023/03/23 05:57:57;;;;;;;98.07;54.37;;;;;;;5.77;100.00;94705.38;6333260;22;20170;-81
2023/03/23 06:00:24;;;;;;;102.97;56.83;;;;;;;5.79;100.00;94703.41;6333527;22;20535;-80
2023/03/23 06:02:57;;;;;;;106.30;57.10;;;;;;;5.81;100.00;94708.38;6262790;22;20293;-92
2023/03/23 06:05:26;;;;;;;96.83;54.93;;;;;;;5.86;100.00;94711.22;6213696;23;20194;-89
2023/03/23 06:07:53;;;;;;;95.50;54.30;;;;;;;5.93;100.00;94712.06;6218642;23;20196;-81
2023/03/23 06:10:20;;;;;;;104.57;55.53;;;;;;;5.93;100.00;94707.72;6207789;23;20284;-80
2023/03/23 06:12:47;;;;;;;118.97;65.37;;;;;;;5.90;100.00;94694.38;6208674;23;20173;-80
2023/03/23 06:15:14;;;;;;;114.63;62.10;;;;;;;5.98;100.00;94710.50;6209611;23;20173;-80
2023/03/23 06:17:41;;;;;;;112.13;62.97;;;;;;;6.13;100.00;94708.63;6208189;23;20166;-80
2023/03/23 06:20:09;;;;;;;111.10;60.87;;;;;;;6.16;100.00;94708.25;6208235;23;20482;-81
2023/03/23 06:22:39;;;;;;;107.17;62.60;;;;;;;6.04;100.00;94691.72;6207653;23;20178;-81
2023/03/23 06:25:07;;;;;;;109.03;60.37;;;;;;;6.27;100.00;94712.09;6209694;23;20234;-81
2023/03/23 06:27:35;;;;;;;105.17;58.37;;;;;;;6.32;100.00;94706.38;6208840;23;20688;-80
2023/03/23 06:30:02;;;;;;;107.67;59.17;;;;;;;6.38;100.00;94705.63;6208265;23;20196;-81
2023/03/23 06:32:32;;;;;;;90.77;51.80;;;;;;;6.40;100.00;94704.44;6209244;23;20170;-80
2023/03/23 06:34:59;;;;;;;90.27;51.60;;;;;;;6.42;100.00;94712.78;6209010;23;20700;-80
2023/03/23 06:37:26;;;;;;;89.23;50.93;;;;;;;6.51;100.00;94708.25;6210018;23;20169;-81
2023/03/23 06:39:54;;;;;;;101.20;51.53;;;;;;;6.48;100.00;94711.22;6208037;23;20166;-81
2023/03/23 06:42:23;;;;;;;90.10;50.60;;;;;;;6.43;100.00;94716.94;6208063;23;20240;-80
2023/03/23 06:44:51;;;;;;;91.37;50.73;;;;;;;6.49;100.00;94716.19;6209324;23;20178;-82
2023/03/23 06:47:18;;;;;;;84.03;48.17;;;;;;;6.61;100.00;94712.06;6211438;23;20193;-82
2023/03/23 06:49:45;;;;;;;78.87;43.43;;;;;;;6.70;100.00;94725.59;6211160;23;20162;-81
2023/03/23 06:52:12;;;;;;;79.87;43.33;;;;;;;6.79;100.00;94724.44;6209949;23;20166;-83
2023/03/23 06:54:39;;;;;;;73.57;42.93;;;;;;;6.68;100.00;94715.47;6212660;23;20171;-82
2023/03/23 06:57:07;;;;;;;80.07;43.27;;;;;;;6.78;100.00;94722.88;6211159;23;20166;-82
2023/03/23 06:59:34;;;;;;;73.23;42.50;;;;;;;6.87;100.00;94716.53;6211593;23;20177;-82
2023/03/23 07:02:01;;;;;;;71.77;42.17;;;;;;;6.92;100.00;94723.72;6210120;23;20253;-81
2023/03/23 07:04:28;;;;;;;75.37;41.50;;;;;;;7.04;100.00;94735.88;6183554;23;20232;-81
2023/03/23 07:06:56;;;;;;;70.07;38.93;;;;;;;7.08;100.00;94713.03;6211610;23;20248;-81
2023/03/23 07:09:23;;;;;;;60.30;37.13;;;;;;;7.27;100.00;94738.13;6213583;23;20174;-83
2023/03/23 07:11:51;;;;;;;64.27;36.03;;;;;;;7.34;100.00;94739.72;6211327;23;20170;-82
2023/03/23 07:14:21;;;;;;;56.00;32.40;;;;;;;7.43;100.00;94737.75;6212762;23;20816;-83
2023/03/23 07:16:48;;;;;;;46.50;29.03;;;;;;;7.48;100.00;94726.81;6213845;23;20555;-83
2023/03/23 07:19:15;;;;;;;50.57;30.70;;;;;;;7.58;100.00;94740.19;6212721;23;20201;-82
2023/03/23 07:21:43;;;;;;;50.97;31.27;;;;;;;7.64;100.00;94740.19;6213272;23;20169;-83
2023/03/23 07:24:13;;;;;;;54.03;32.30;;;;;;;7.72;100.00;94736.59;6212937;23;20290;-82
2023/03/23 07:26:41;;;;;;;52.23;31.53;;;;;;;7.84;100.00;94740.19;6212908;23;20182;-82
2023/03/23 07:29:08;;;;;;;51.90;30.80;;;;;;;7.85;100.00;94729.63;6212105;23;20174;-82
2023/03/23 07:31:37;;;;;;;50.60;31.80;;;;;;;7.91;100.00;94730.63;6212941;23;20633;-84
2023/03/23 07:34:04;;;;;;;46.90;30.73;;;;;;;8.09;100.00;94742.97;6211570;23;20613;-82
2023/03/23 07:36:31;;;;;;;50.73;30.63;;;;;;;8.10;100.00;94737.59;6212476;23;20162;-80
2023/03/23 07:38:59;;;;;;;52.07;31.07;;;;;;;8.12;100.00;94737.41;6211241;23;20661;-81
2023/03/23 07:41:26;;;;;;;47.53;30.53;;;;;;;8.21;100.00;94736.19;6212066;23;20637;-81
2023/03/23 07:43:53;;;;;;;49.73;30.13;;;;;;;8.33;100.00;94734.63;6212610;23;20629;-81
2023/03/23 07:46:20;;;;;;;52.13;30.80;;;;;;;8.40;100.00;94735.38;6211065;23;20249;-81
2023/03/23 07:48:48;;;;;;;50.03;29.87;;;;;;;8.49;100.00;94741.94;6210994;23;20349;-81
2023/03/23 07:51:16;;;;;;;52.80;29.63;;;;;;;8.57;100.00;94746.13;6211578;23;20170;-81
2023/03/23 07:53:44;;;;;;;48.67;30.37;;;;;;;8.68;100.00;94750.69;6212730;23;20225;-84
2023/03/23 07:56:11;;;;;;;50.00;30.37;;;;;;;8.77;100.00;94745.09;6211757;23;20169;-80
2023/03/23 07:58:38;;;;;;;50.83;29.13;;;;;;;8.86;100.00;94745.66;6211839;23;20181;-84
2023/03/23 08:01:06;;;;;;;60.33;31.87;;;;;;;8.89;100.00;94742.63;6210834;23;20167;-81
2023/03/23 08:03:33;;;;;;;54.03;31.27;;;;;;;9.02;100.00;94756.34;6210118;23;20205;-82
2023/03/23 08:06:02;;;;;;;55.37;29.93;;;;;;;9.12;100.00;94746.31;6210504;23;20186;-81
2023/03/23 08:08:30;;;;;;;54.80;30.17;;;;;;;9.19;100.00;94753.28;6210366;23;20171;-81
2023/03/23 08:10:56;;;;;;;50.70;29.20;;;;;;;9.29;100.00;94751.06;6211413;23;20166;-83
2023/03/23 08:13:24;;;;;;;45.47;27.70;;;;;;;9.33;100.00;94745.22;6210730;23;20178;-81
2023/03/23 08:15:51;;;;;;;47.47;27.67;;;;;;;9.47;100.00;94754.53;6202418;23;20197;-81
2023/03/23 08:18:19;;;;;;;45.73;25.10;;;;;;;9.59;100.00;94752.06;6210358;23;20170;-82
2023/03/23 08:20:46;;;;;;;37.43;25.97;;;;;;;9.72;100.00;94752.00;6210184;23;20238;-80
2023/03/23 08:23:15;;;;;;;43.70;27.40;;;;;;;9.78;100.00;94739.97;6209888;23;20521;-83
2023/03/23 08:25:43;;;;;;;46.03;25.80;;;;;;;9.84;100.00;94737.31;6210070;23;20250;-82
2023/03/23 08:28:10;;;;;;;43.50;26.00;;;;;;;10.01;100.00;94750.59;6210767;23;20162;-81
2023/03/23 08:30:39;;;;;;;44.10;24.73;;;;;;;10.11;100.00;94745.69;6211401;23;20170;-80
2023/03/23 08:33:09;;;;;;;39.30;24.07;;;;;;;10.24;100.00;94746.41;6211059;23;20622;-91
2023/03/23 08:35:37;;;;;;;35.53;22.17;;;;;;;10.42;100.00;94745.66;6212327;23;20253;-90
2023/03/23 08:38:04;;;;;;;35.80;22.27;;;;;;;10.56;100.00;94749.72;6214227;23;20162;-83
2023/03/23 08:40:33;;;;;;;35.27;20.93;;;;;;;10.74;100.00;94746.31;6211172;23;20174;-88
2023/03/23 08:43:00;;;;;;;31.93;20.67;;;;;;;10.90;100.00;94755.38;6211366;23;20174;-86
2023/03/23 08:45:27;;;;;;;30.33;19.23;;;;;;;11.08;99.35;94752.78;6211692;23;20166;-86
2023/03/23 08:47:55;;;;;;;21.33;13.47;;;;;;;11.21;95.85;94753.41;6212027;23;20194;-87
2023/03/23 08:50:25;;;;;;;18.90;12.70;;;;;;;11.38;92.97;94756.97;6212351;23;20228;-87
2023/03/23 08:52:53;;;;;;;19.80;13.20;;;;;;;11.62;91.57;94757.88;6211333;23;20174;-86
2023/03/23 08:55:21;;;;;;;20.73;12.90;;;;;;;11.77;90.35;94757.50;6211537;23;20166;-87
2023/03/23 08:57:49;;;;;;;21.30;14.03;;;;;;;11.84;89.11;94752.97;6211769;23;20577;-85
2023/03/23 09:00:20;;;;;;;20.93;13.40;;;;;;;12.05;88.81;94762.06;6212513;23;20170;-83
2023/03/23 09:02:50;;;;;;;19.50;11.67;;;;;;;12.26;88.81;94759.75;6211294;22;20610;-86
2023/03/23 09:05:18;;;;;;;15.80;10.03;;;;;;;12.41;85.46;94760.06;6211719;23;20167;-86
2023/03/23 09:07:51;;;;;;;13.73;9.80;;;;;;;12.53;83.34;94749.66;6211436;23;20293;-87
2023/03/23 09:10:24;;;;;;;13.93;10.00;;;;;;;12.78;82.68;94757.25;6211113;23;20197;-83
2023/03/23 09:13:05;;;;;;;14.83;10.70;;;;;;;12.59;81.52;94687.97;6212820;23;20173;-86
2023/03/23 09:15:38;;;;;;;17.60;11.80;;;;;;;13.02;81.92;94714.44;6212428;23;20282;-85
2023/03/23 09:18:05;;;;;;;14.13;10.40;;;;;;;13.16;80.60;94704.56;6211173;23;20237;-86
2023/03/23 09:20:37;;;;;;;14.03;10.47;;;;;;;13.44;76.65;94725.44;6212350;23;20174;-87
2023/03/23 09:23:12;;;;;;;18.00;12.07;;;;;;;13.20;76.47;94703.06;6212590;23;20171;-87
2023/03/23 09:25:47;;;;;;;24.23;12.83;;;;;;;13.66;76.58;94757.69;6213082;23;20166;-85
2023/03/23 09:28:20;;;;;;;17.43;11.87;;;;;;;13.37;78.34;94736.03;6211155;23;20215;-86
2023/03/23 09:31:00;;;;;;;30.00;16.80;;;;;;;13.48;78.69;94752.66;6210049;23;20151;-84
2023/03/23 09:33:34;;;;;;;18.67;11.37;;;;;;;13.37;78.68;94683.00;6211628;23;20553;-86
2023/03/23 09:36:12;;;;;;;14.97;10.23;;;;;;;13.82;78.67;94717.78;6211829;23;20166;-88
2023/03/23 09:38:41;;;;;;;15.73;9.80;;;;;;;14.09;76.08;94681.34;6211559;23;20169;-83
2023/03/23 09:41:22;;;;;;;16.30;10.30;;;;;;;14.56;75.09;94705.31;6213451;23;20163;-87
2023/03/23 09:44:03;;;;;;;15.27;10.10;;;;;;;14.87;72.95;94730.84;6215071;23;20162;-86
2023/03/23 09:46:54;;;;;;;14.90;9.87;;;;;;;14.59;72.40;94671.63;6213022;23;20584;-85
2023/03/23 09:49:29;;;;;;;18.73;11.73;;;;;;;14.79;73.52;94684.19;6211062;23;20167;-84
2023/03/23 09:52:02;;;;;;;17.50;10.63;;;;;;;15.56;72.68;94755.53;6212727;23;20193;-87
2023/03/23 09:54:34;;;;;;;14.87;10.50;;;;;;;15.31;71.87;94705.47;6213104;23;20170;-86
2023/03/23 09:57:08;;;;;;;14.07;8.70;;;;;;;15.28;70.35;94685.00;6214673;23;20154;-87
2023/03/23 09:59:42;;;;;;;14.37;9.87;;;;;;;15.73;70.46;94730.03;6219051;23;20229;-86
2023/03/23 10:02:15;;;;;;;15.47;9.63;;;;;;;16.07;67.95;94753.44;6225108;23;20189;-87
2023/03/23 10:04:46;;;;;;;21.13;12.87;;;;;;;16.30;71.63;94730.28;6220167;23;20593;-86
2023/03/23 10:07:15;;;;;;;17.10;9.90;;;;;;;16.55;67.55;94755.94;6211874;23;20269;-86
2023/03/23 10:09:45;;;;;;;16.20;9.40;;;;;;;16.77;67.29;94735.59;6212923;23;20594;-87
2023/03/23 10:12:22;;;;;;;16.83;9.30;;;;;;;17.14;64.98;94734.75;6222425;23;20574;-88
2023/03/23 10:15:05;;;;;;;14.40;9.30;;;;;;;17.54;64.72;94746.22;6212018;23;20150;-87
2023/03/23 10:17:37;;;;;;;15.07;9.90;;;;;;;17.65;61.67;94743.63;6211796;23;20158;-89
2023/03/23 10:20:20;;;;;;;14.40;10.07;;;;;;;17.83;63.46;94736.03;6211580;23;20216;-81
2023/03/23 10:22:57;;;;;;;11.17;8.30;;;;;;;18.30;60.99;94754.22;6211818;23;20155;-81
2023/03/23 10:25:28;;;;;;;11.93;8.03;;;;;;;18.34;60.70;94744.75;6211900;23;20190;-81
2023/03/23 10:28:03;;;;;;;12.53;8.57;;;;;;;18.46;60.44;94737.38;6211069;23;20182;-87
2023/03/23 10:30:36;;;;;;;10.77;8.55;;;;;;;18.59;61.14;94746.59;6212378;23;20154;-87
2023/03/23 10:33:06;;;;;;;11.40;7.93;;;;;;;18.49;60.64;94750.06;6217793;23;20204;-86
2023/03/23 10:35:37;;;;;;;11.40;7.80;;;;;;;18.48;60.06;94742.38;6214197;23;20242;-87
2023/03/23 10:38:10;;;;;;;11.47;7.93;;;;;;;18.27;59.66;94748.72;6214014;23;20692;-89
2023/03/23 10:40:52;;;;;;;11.45;7.72;;;;;;;18.19;59.92;94739.47;6216495;23;20155;-87
2023/03/23 10:43:22;;;;;;;9.17;7.97;;;;;;;18.52;59.77;94736.38;6223516;23;20249;-86
2023/03/23 10:45:58;;;;;;;13.40;8.43;;;;;;;18.76;58.28;94739.22;6219344;23;20166;-88
2023/03/23 10:48:32;;;;;;;12.30;9.02;;;;;;;18.81;58.38;94730.53;6231561;23;20189;-88
2023/03/23 10:51:06;;;;;;;14.75;9.65;;;;;;;18.76;58.36;94735.81;6227709;23;20166;-88
2023/03/23 10:53:37;;;;;;;11.70;9.07;;;;;;;18.77;57.77;94725.00;6213425;23;20198;-87
2023/03/23 10:56:05;;;;;;;10.55;8.25;;;;;;;18.87;58.33;94740.78;6211760;23;20151;-88
2023/03/23 10:58:34;;;;;;;12.02;8.50;;;;;;;19.07;57.36;94730.19;6212259;23;20173;-88
2023/03/23 11:01:05;;;;;;;12.05;8.80;;;;;;;19.35;56.99;94735.88;6212519;23;20166;-87
2023/03/23 11:03:42;;;;;;;11.18;8.23;;;;;;;19.88;55.07;94731.69;6211954;23;20555;-86
2023/03/23 11:06:11;;;;;;;12.10;8.88;;;;;;;20.24;54.17;94733.81;6211361;23;20213;-88
2023/03/23 11:08:49;;;;;;;11.32;8.45;;;;;;;19.89;54.34;94709.50;6210813;23;20252;-88
2023/03/23 11:11:18;;;;;;;12.30;8.48;;;;;;;20.34;54.57;94738.25;6211665;23;20151;-89
2023/03/23 11:13:47;;;;;;;8.95;7.65;;;;;;;20.37;52.77;94729.78;6210968;23;20784;-88
2023/03/23 11:16:26;;;;;;;11.20;7.93;;;;;;;19.93;51.85;94721.88;6212176;23;20684;-89
2023/03/23 11:18:53;;;;;;;13.10;8.27;;;;;;;19.85;50.80;94724.31;6212090;23;20161;-87
2023/03/23 11:21:22;;;;;;;11.25;8.52;;;;;;;20.01;50.22;94708.09;6211138;23;20166;-87
2023/03/23 11:24:03;;;;;;;13.23;8.45;;;;;;;20.14;51.40;94719.91;6211343;23;20193;-87
2023/03/23 11:26:39;;;;;;;11.68;7.90;;;;;;;20.19;50.03;94720.66;6210823;23;20177;-88
2023/03/23 11:29:15;;;;;;;10.50;8.90;;;;;;;20.31;51.06;94715.84;6212064;23;20195;-88
2023/03/23 11:31:45;;;;;;;11.02;8.52;;;;;;;20.83;49.79;94701.09;6217273;23;20173;-87
2023/03/23 11:34:16;;;;;;;11.43;8.27;;;;;;;20.59;49.80;94681.78;6210486;23;20166;-87
2023/03/23 11:36:49;;;;;;;9.55;7.95;;;;;;;20.33;48.99;94676.75;6210786;23;20194;-87
2023/03/23 11:39:22;;;;;;;10.20;7.35;;;;;;;20.35;49.01;94702.84;6211134;23;20182;-88
2023/03/23 11:41:49;;;;;;;12.93;7.93;;;;;;;19.89;50.08;94693.69;6212291;23;20159;-87
2023/03/23 11:44:16;;;;;;;11.77;7.95;;;;;;;20.30;49.79;94706.34;6210904;23;20174;-86
2023/03/23 11:46:52;;;;;;;11.60;8.10;;;;;;;20.95;48.40;94701.50;6210371;23;20166;-87